Time;durP1;ratioP1;P1;durP2;ratioP2;P2;SDS_P1;SDS_P2;PMS_P1;PMS_P2;Temp;Humidity;BMP_temperature;BMP_pressure;BME280_temperature;BME280_humidity;BME280_pressure;Samples;Min_cycle;Max_cycle;Signal;HPM_P1;HPM_P2
2023/06/10 00:02:16;;;;;;;6.57;4.35;;;;;;;19.30;100.00;165617.44;5032699;28;20056;-67
2023/06/10 00:04:42;;;;;;;5.60;4.50;;;;;;;19.25;100.00;165603.84;5031247;28;20044;-67
2023/06/10 00:07:08;;;;;;;6.95;5.03;;;;;;;19.20;100.00;165588.94;5032758;28;20428;-67
2023/06/10 00:09:40;;;;;;;7.07;4.47;;;;;;;19.17;100.00;165582.19;5031128;28;20037;-67
2023/06/10 00:12:07;;;;;;;8.00;4.20;;;;;;;19.14;100.00;165574.03;5032605;28;20032;-67
2023/06/10 00:14:33;;;;;;;6.68;5.43;;;;;;;19.11;100.00;165567.25;5030805;28;20045;-67
2023/06/10 00:16:59;;;;;;;11.52;5.85;;;;;;;19.07;100.00;165556.38;5032467;28;20025;-67
2023/06/10 00:19:30;;;;;;;6.85;4.45;;;;;;;19.03;100.00;165546.88;5031353;28;20099;-67
2023/06/10 00:21:56;;;;;;;10.18;5.28;;;;;;;19.01;100.00;165541.47;5031648;28;20035;-67
2023/06/10 00:24:21;;;;;;;9.90;4.70;;;;;;;18.98;100.00;165532.00;5031259;28;20045;-67
2023/06/10 00:26:47;;;;;;;5.85;4.68;;;;;;;18.93;100.00;165519.78;5032031;28;20113;-67
2023/06/10 00:29:14;;;;;;;5.72;5.00;;;;;;;18.91;100.00;165514.28;5030732;28;20072;-67
2023/06/10 00:31:39;;;;;;;9.70;4.90;;;;;;;18.89;100.00;165508.84;5032187;28;20021;-66
2023/06/10 00:34:05;;;;;;;10.38;4.90;;;;;;;18.89;100.00;165507.50;5031160;28;20037;-67
2023/06/10 00:36:30;;;;;;;6.40;4.30;;;;;;;18.85;100.00;165498.00;5031845;28;20427;-67
2023/06/10 00:38:56;;;;;;;6.45;4.32;;;;;;;18.79;100.00;165481.75;5030743;28;20128;-67
2023/06/10 00:41:22;;;;;;;12.07;4.93;;;;;;;18.78;100.00;165479.03;5031753;28;20030;-67
2023/06/10 00:43:47;;;;;;;7.22;4.68;;;;;;;18.74;100.00;165469.53;5029959;28;20107;-67
2023/06/10 00:46:13;;;;;;;6.45;5.07;;;;;;;18.70;100.00;165460.03;5032152;28;20021;-67
2023/06/10 00:48:41;;;;;;;8.40;4.97;;;;;;;18.65;100.00;165446.44;5030164;28;20048;-67
2023/06/10 00:51:08;;;;;;;17.48;5.28;;;;;;;18.62;100.00;165438.34;5031698;28;20037;-67
2023/06/10 00:53:35;;;;;;;12.27;5.05;;;;;;;18.64;100.00;165442.41;5030638;28;20049;-66
2023/06/10 00:56:01;;;;;;;13.13;5.90;;;;;;;18.63;100.00;165439.66;5031435;28;20029;-66
2023/06/10 00:58:26;;;;;;;7.28;5.38;;;;;;;18.53;100.00;165413.91;5030163;28;20050;-66
2023/06/10 01:00:53;;;;;;;7.50;4.68;;;;;;;18.54;100.00;165416.63;5031837;28;20013;-66
2023/06/10 01:03:18;;;;;;;5.93;5.32;;;;;;;18.53;100.00;165413.91;5030008;28;20048;-66
2023/06/10 01:05:51;;;;;;;6.30;4.90;;;;;;;18.47;100.00;165397.66;5030800;28;20033;-66
2023/06/10 01:08:23;;;;;;;8.13;5.03;;;;;;;18.42;100.00;165384.09;5030625;28;20075;-66
2023/06/10 01:10:57;;;;;;;12.00;5.65;;;;;;;18.37;100.00;165371.91;5031182;28;20114;-69
2023/06/10 01:13:24;;;;;;;15.80;5.35;;;;;;;18.32;100.00;165359.69;5030273;28;20388;-68
2023/06/10 01:15:51;;;;;;;9.27;4.65;;;;;;;18.28;100.00;165347.47;5031471;28;20025;-68
2023/06/10 01:18:17;;;;;;;8.98;5.28;;;;;;;18.27;100.00;165344.75;5029864;28;20108;-68
2023/06/10 01:20:44;;;;;;;8.85;4.55;;;;;;;18.24;100.00;165338.00;5030216;28;20140;-68
2023/06/10 01:23:10;;;;;;;11.27;5.53;;;;;;;18.17;100.00;165319.00;5029724;28;20025;-68
2023/06/10 01:25:40;;;;;;;5.35;4.43;;;;;;;18.11;100.00;165302.75;5031195;28;20480;-68
2023/06/10 01:28:29;;;;;;;8.70;5.70;;;;;;;18.08;100.00;165297.31;5031308;28;20103;-68
2023/06/10 01:31:15;;;;;;;11.02;6.45;;;;;;;18.06;100.00;165291.88;5010212;28;20049;-68
2023/06/10 01:33:45;;;;;;;5.55;4.93;;;;;;;17.99;100.00;165272.91;5009586;28;20121;-66
2023/06/10 01:36:12;;;;;;;9.52;5.38;;;;;;;18.00;100.00;165275.59;5011730;28;20022;-66
2023/06/10 01:38:42;;;;;;;5.32;4.38;;;;;;;17.96;100.00;165264.78;5009494;28;20049;-65
2023/06/10 01:41:09;;;;;;;15.15;5.38;;;;;;;17.87;100.00;165240.31;5010492;28;20061;-66
2023/06/10 01:43:37;;;;;;;12.98;4.88;;;;;;;17.87;100.00;165240.31;5009619;28;20034;-66
2023/06/10 01:46:02;;;;;;;8.55;5.25;;;;;;;17.81;100.00;165224.06;5011586;28;20030;-65
2023/06/10 01:48:27;;;;;;;9.13;4.85;;;;;;;17.55;100.00;165156.28;5009946;28;20045;-66
2023/06/10 01:50:54;;;;;;;14.85;5.68;;;;;;;17.72;100.00;165201.03;5010517;28;20026;-68
2023/06/10 01:53:20;;;;;;;8.45;5.65;;;;;;;-146.58;100.00;69501.63;5009643;28;20025;-68
2023/06/10 01:55:45;;;;;;;10.02;4.97;;;;;;;-146.58;100.00;69501.63;5010985;28;20017;-68
2023/06/10 01:58:10;;;;;;;13.00;4.63;;;;;;;-146.58;100.00;69501.63;5009776;28;20037;-66
2023/06/10 02:00:36;;;;;;;9.23;4.82;;;;;;;-146.58;100.00;69501.63;5010953;28;20022;-66
2023/06/10 02:03:01;;;;;;;14.27;6.13;;;;;;;-146.58;100.00;69501.63;5010700;28;20057;-66
2023/06/10 02:05:26;;;;;;;6.03;5.00;;;;;;;-146.58;100.00;69501.63;5009469;28;20049;-66
2023/06/10 02:07:52;;;;;;;7.97;4.93;;;;;;;-146.58;100.00;69501.63;5010620;28;20033;-66
2023/06/10 02:10:17;;;;;;;10.57;5.60;;;;;;;-146.58;100.00;69501.63;5009587;28;20042;-66
2023/06/10 02:12:42;;;;;;;7.45;5.65;;;;;;;-146.58;100.00;69501.63;5010683;28;20022;-66
2023/06/10 02:15:08;;;;;;;11.57;5.65;;;;;;;-146.58;100.00;69501.63;5009550;28;20042;-66
2023/06/10 02:17:33;;;;;;;10.63;5.45;;;;;;;-146.58;100.00;69501.63;5011008;28;20034;-66
2023/06/10 02:19:59;;;;;;;8.95;5.30;;;;;;;-146.58;100.00;69501.63;5009091;28;20523;-66
2023/06/10 02:22:25;;;;;;;11.02;5.72;;;;;;;-146.58;100.00;69501.63;5010291;28;20022;-66
2023/06/10 02:24:50;;;;;;;7.88;4.57;;;;;;;-146.58;100.00;69501.63;5008097;28;20045;-66
2023/06/10 02:27:16;;;;;;;9.00;5.93;;;;;;;-146.58;100.00;69501.63;5010873;28;20034;-66
2023/06/10 02:29:43;;;;;;;12.25;6.18;;;;;;;-146.58;100.00;69501.63;5009160;28;20065;-66
2023/06/10 02:32:09;;;;;;;10.10;6.50;;;;;;;-146.58;100.00;69501.63;5013935;28;20029;-66
2023/06/10 02:34:34;;;;;;;14.85;6.63;;;;;;;-146.58;100.00;69501.63;5012815;28;20473;-66
2023/06/10 02:37:00;;;;;;;10.90;5.40;;;;;;;-146.58;100.00;69501.63;5014226;28;20029;-67
2023/06/10 02:39:26;;;;;;;8.00;5.35;;;;;;;-146.58;100.00;69501.63;5012915;28;20052;-67
2023/06/10 02:41:51;;;;;;;12.30;6.15;;;;;;;-146.58;100.00;69501.63;5014160;28;20013;-66
2023/06/10 02:44:18;;;;;;;9.32;5.03;;;;;;;-146.58;100.00;69501.63;5013019;28;20065;-67
2023/06/10 02:46:43;;;;;;;12.43;6.85;;;;;;;-146.58;100.00;69501.63;5014384;28;20101;-66
2023/06/10 02:49:08;;;;;;;11.23;5.72;;;;;;;-146.58;100.00;69501.63;5012704;28;20544;-67
2023/06/10 02:51:34;;;;;;;9.82;5.18;;;;;;;-146.58;100.00;69501.63;5014235;28;20022;-66
2023/06/10 02:53:59;;;;;;;10.18;5.53;;;;;;;-146.58;100.00;69501.63;5012850;28;20045;-66
2023/06/10 02:56:25;;;;;;;8.88;4.68;;;;;;;-146.58;100.00;69501.63;5013985;28;20022;-66
2023/06/10 02:58:51;;;;;;;10.52;6.88;;;;;;;-146.58;100.00;69501.63;5012757;28;20065;-66
2023/06/10 03:01:18;;;;;;;7.85;5.18;;;;;;;-146.58;100.00;69501.63;5014248;28;20030;-66
2023/06/10 03:03:44;;;;;;;7.70;6.25;;;;;;;-146.58;100.00;69501.63;5012062;28;20049;-66
2023/06/10 03:06:10;;;;;;;12.88;7.03;;;;;;;-146.58;100.00;69501.63;5013967;28;20030;-66
2023/06/10 03:08:36;;;;;;;13.38;7.22;;;;;;;-146.58;100.00;69501.63;5012516;28;20045;-66
2023/06/10 03:11:01;;;;;;;12.88;6.05;;;;;;;-146.58;100.00;69501.63;5013805;28;20022;-66
2023/06/10 03:13:27;;;;;;;6.05;5.07;;;;;;;-146.58;100.00;69501.63;5012966;28;20038;-66
2023/06/10 03:15:52;;;;;;;8.65;7.32;;;;;;;-146.58;100.00;69501.63;5014012;28;20080;-65
2023/06/10 03:18:18;;;;;;;8.40;5.95;;;;;;;-146.58;100.00;69501.63;5011801;28;20030;-66
2023/06/10 03:20:44;;;;;;;12.63;7.00;;;;;;;-146.58;100.00;69501.63;5013709;28;20022;-66
2023/06/10 03:23:09;;;;;;;7.97;5.95;;;;;;;-146.58;100.00;69501.63;5012753;28;20034;-65
2023/06/10 03:25:35;;;;;;;9.43;6.85;;;;;;;-146.58;100.00;69501.63;5013563;28;20029;-66
2023/06/10 03:28:00;;;;;;;11.57;6.10;;;;;;;-146.58;100.00;69501.63;5013647;28;20056;-66
2023/06/10 03:30:26;;;;;;;12.30;6.93;;;;;;;-146.58;100.00;69501.63;5012243;28;20050;-65
2023/06/10 03:32:52;;;;;;;7.75;5.85;;;;;;;-146.58;100.00;69501.63;5012042;28;20117;-66
2023/06/10 03:35:17;;;;;;;13.00;7.38;;;;;;;-146.58;100.00;69501.63;5012038;28;20077;-66
2023/06/10 03:37:43;;;;;;;14.40;6.88;;;;;;;-146.58;100.00;69501.63;5013527;28;20116;-67
2023/06/10 03:40:08;;;;;;;16.48;6.93;;;;;;;-146.58;100.00;69501.63;5011721;28;20038;-66
2023/06/10 03:42:34;;;;;;;8.57;5.90;;;;;;;-146.58;100.00;69501.63;5012929;28;20030;-67
2023/06/10 03:45:00;;;;;;;7.43;6.20;;;;;;;-146.58;100.00;69501.63;5011945;28;20038;-66
2023/06/10 03:47:25;;;;;;;12.05;5.07;;;;;;;-146.58;100.00;69501.63;5013118;28;20030;-66
2023/06/10 03:49:51;;;;;;;10.30;6.10;;;;;;;-146.58;100.00;69501.63;5011538;28;20523;-66
2023/06/10 03:52:17;;;;;;;7.35;5.40;;;;;;;-146.58;100.00;69501.63;5013507;28;20076;-66
2023/06/10 03:54:42;;;;;;;7.65;5.15;;;;;;;-146.58;100.00;69501.63;5011298;28;20050;-66
2023/06/10 03:57:07;;;;;;;12.90;6.05;;;;;;;-146.58;100.00;69501.63;5013406;28;20022;-66
2023/06/10 03:59:33;;;;;;;10.60;7.38;;;;;;;-146.58;100.00;69501.63;5011570;28;20049;-66
2023/06/10 04:01:58;;;;;;;8.32;5.97;;;;;;;-146.58;100.00;69501.63;5012313;28;20041;-66
2023/06/10 04:04:24;;;;;;;15.85;6.45;;;;;;;-146.58;100.00;69501.63;5011819;28;20042;-66
2023/06/10 04:06:50;;;;;;;9.57;6.43;;;;;;;-146.58;100.00;69501.63;5012670;28;20037;-66
2023/06/10 04:09:16;;;;;;;9.75;6.07;;;;;;;-146.58;100.00;69501.63;5010877;28;20045;-66
2023/06/10 04:11:41;;;;;;;9.35;5.50;;;;;;;-146.58;100.00;69501.63;5012694;28;20523;-68
2023/06/10 04:14:07;;;;;;;12.25;8.13;;;;;;;-146.58;100.00;69501.63;5010713;28;20053;-66
2023/06/10 04:16:33;;;;;;;9.10;6.28;;;;;;;-146.58;100.00;69501.63;5001802;28;20423;-65
2023/06/10 04:19:00;;;;;;;10.85;5.75;;;;;;;-146.58;100.00;69501.63;5010055;28;20121;-65
2023/06/10 04:21:26;;;;;;;13.57;6.05;;;;;;;-146.58;100.00;69501.63;5012947;28;20026;-65
2023/06/10 04:23:51;;;;;;;12.20;6.47;;;;;;;-146.58;100.00;69501.63;5011187;28;20105;-65
2023/06/10 04:26:17;;;;;;;6.97;5.93;;;;;;;-146.58;100.00;69501.63;5012385;28;20041;-65
2023/06/10 04:28:45;;;;;;;8.65;5.43;;;;;;;-146.58;100.00;69501.63;5011320;28;20034;-65
2023/06/10 04:31:11;;;;;;;8.80;5.72;;;;;;;-146.58;100.00;69501.63;5012619;28;20030;-65
2023/06/10 04:33:36;;;;;;;10.07;7.63;;;;;;;-146.58;100.00;69501.63;5012102;28;20026;-64
2023/06/10 04:36:02;;;;;;;7.10;5.97;;;;;;;-146.58;100.00;69501.63;5009649;28;20041;-65
2023/06/10 04:38:28;;;;;;;8.93;5.93;;;;;;;-146.58;100.00;69501.63;5010024;28;20041;-65
2023/06/10 04:40:53;;;;;;;8.75;6.50;;;;;;;-146.58;100.00;69501.63;5009269;28;20117;-65
2023/06/10 04:43:18;;;;;;;11.65;6.18;;;;;;;-146.58;100.00;69501.63;5011118;28;20026;-65
2023/06/10 04:45:46;;;;;;;9.95;5.78;;;;;;;-146.58;100.00;69501.63;5010351;28;20042;-65
2023/06/10 04:48:12;;;;;;;15.18;7.50;;;;;;;-146.58;100.00;69501.63;5010958;28;20026;-65
2023/06/10 04:50:38;;;;;;;12.50;6.22;;;;;;;-146.58;100.00;69501.63;5010411;28;20049;-65
2023/06/10 04:53:04;;;;;;;10.38;6.30;;;;;;;-146.58;100.00;69501.63;5011800;28;20017;-66
2023/06/10 04:55:29;;;;;;;10.07;6.47;;;;;;;-146.58;100.00;69501.63;5007362;28;20131;-66
2023/06/10 04:57:55;;;;;;;6.30;5.28;;;;;;;-146.58;100.00;69501.63;5011388;28;20107;-69
2023/06/10 05:00:20;;;;;;;12.13;6.47;;;;;;;-146.58;100.00;69501.63;5009544;28;20034;-68
2023/06/10 05:02:49;;;;;;;14.98;7.05;;;;;;;-146.58;100.00;69501.63;5009614;28;20455;-70
2023/06/10 05:05:15;;;;;;;9.00;5.35;;;;;;;-146.58;100.00;69501.63;5009882;28;20573;-70
2023/06/10 05:07:41;;;;;;;9.00;5.13;;;;;;;-146.58;100.00;69501.63;5011242;28;20022;-68
2023/06/10 05:10:07;;;;;;;7.43;5.30;;;;;;;-146.58;100.00;69501.63;5008477;28;20096;-67
2023/06/10 05:12:32;;;;;;;8.38;5.75;;;;;;;-146.58;100.00;69501.63;5011660;28;20032;-68
2023/06/10 05:14:57;;;;;;;9.50;6.32;;;;;;;-146.58;100.00;69501.63;5009621;28;20045;-68
2023/06/10 05:17:23;;;;;;;16.27;6.75;;;;;;;-146.58;100.00;69501.63;5010452;28;20053;-67
2023/06/10 05:19:48;;;;;;;13.82;6.38;;;;;;;-146.58;100.00;69501.63;5009284;28;20045;-67
2023/06/10 05:22:16;;;;;;;10.50;5.45;;;;;;;-146.58;100.00;69501.63;5010938;28;20435;-67
2023/06/10 05:24:41;;;;;;;12.98;6.18;;;;;;;-146.58;100.00;69501.63;5008116;28;20037;-67
2023/06/10 05:27:06;;;;;;;8.70;4.43;;;;;;;-146.58;100.00;69501.63;5010551;28;20066;-67
2023/06/10 05:29:32;;;;;;;16.27;5.80;;;;;;;-146.58;100.00;69501.63;5009713;28;20052;-67
2023/06/10 05:32:00;;;;;;;9.88;5.25;;;;;;;-146.58;100.00;69501.63;5009725;28;20026;-68
2023/06/10 05:34:25;;;;;;;8.10;4.68;;;;;;;-146.58;100.00;69501.63;5009731;28;20175;-67
2023/06/10 05:36:50;;;;;;;12.77;6.90;;;;;;;-146.58;100.00;69501.63;5010869;28;20030;-68
2023/06/10 05:39:16;;;;;;;9.43;5.75;;;;;;;-146.58;100.00;69501.63;5007660;28;20046;-67
2023/06/10 05:41:41;;;;;;;7.15;5.53;;;;;;;-146.58;100.00;69501.63;5010904;28;20021;-67
2023/06/10 05:44:06;;;;;;;8.80;5.00;;;;;;;-146.58;100.00;69501.63;5009087;28;20096;-67
2023/06/10 05:46:32;;;;;;;6.70;4.53;;;;;;;-146.58;100.00;69501.63;5009630;28;20034;-67
2023/06/10 05:48:57;;;;;;;11.93;5.60;;;;;;;-146.58;100.00;69501.63;5008429;28;20042;-67
2023/06/10 05:51:23;;;;;;;9.50;4.50;;;;;;;-146.58;100.00;69501.63;5009163;28;20037;-65
2023/06/10 05:53:48;;;;;;;7.82;6.00;;;;;;;-146.58;100.00;69501.63;5014089;28;20072;-65
2023/06/10 05:56:14;;;;;;;9.85;5.78;;;;;;;-146.58;100.00;69501.63;5011878;28;20538;-65
2023/06/10 05:58:39;;;;;;;9.07;6.10;;;;;;;-146.58;100.00;69501.63;5009206;28;20515;-68
2023/06/10 06:01:05;;;;;;;7.40;5.45;;;;;;;-146.58;100.00;69501.63;5010329;28;20034;-68
2023/06/10 06:03:30;;;;;;;8.68;4.60;;;;;;;-146.58;100.00;69501.63;5008874;28;20049;-67
2023/06/10 06:05:55;;;;;;;7.43;4.78;;;;;;;-146.58;100.00;69501.63;5008965;28;20037;-64
2023/06/10 06:08:21;;;;;;;5.53;4.25;;;;;;;-146.58;100.00;69501.63;5008984;28;20018;-64
2023/06/10 06:10:47;;;;;;;7.95;5.70;;;;;;;-146.58;100.00;69501.63;5010491;28;20029;-64
2023/06/10 06:13:13;;;;;;;20.27;4.90;;;;;;;-146.58;100.00;69501.63;5009208;28;20029;-63
2023/06/10 06:15:38;;;;;;;16.42;6.00;;;;;;;-146.58;100.00;69501.63;5009812;28;20097;-64
2023/06/10 06:18:03;;;;;;;6.95;5.40;;;;;;;19.00;100.00;165538.75;5010388;28;20029;-63
2023/06/10 06:20:29;;;;;;;5.38;4.80;;;;;;;19.13;100.00;165571.31;5009338;28;20037;-63
2023/06/10 06:22:54;;;;;;;17.73;6.15;;;;;;;-146.58;100.00;69501.63;5010022;28;20478;-64
2023/06/10 06:25:19;;;;;;;9.82;4.68;;;;;;;19.47;100.00;165660.88;5009228;28;20381;-63
2023/06/10 06:27:45;;;;;;;8.68;4.82;;;;;;;19.69;100.00;165717.84;5010113;28;20033;-64
2023/06/10 06:30:10;;;;;;;6.97;4.88;;;;;;;19.87;100.00;165766.72;5008093;28;20104;-63
2023/06/10 06:32:36;;;;;;;8.88;4.50;;;;;;;20.08;100.00;165821.00;5010372;28;20037;-65
2023/06/10 06:35:01;;;;;;;5.53;4.18;;;;;;;20.22;100.00;165859.00;5008695;28;20046;-65
2023/06/10 06:37:26;;;;;;;8.02;4.60;;;;;;;20.45;100.00;165918.72;5010290;28;20041;-65
2023/06/10 06:39:53;;;;;;;9.13;4.10;;;;;;;20.48;100.00;165925.56;5008103;28;20042;-64
2023/06/10 06:42:19;;;;;;;7.35;3.90;;;;;;;20.63;100.00;165966.25;5010381;28;20033;-64
2023/06/10 06:44:46;;;;;;;5.90;3.42;;;;;;;20.77;100.00;166004.31;5007967;28;20049;-64
2023/06/10 06:47:11;;;;;;;9.32;5.53;;;;;;;20.87;100.00;166030.13;5010002;28;20076;-65
2023/06/10 06:49:37;;;;;;;8.20;4.68;;;;;;;20.99;100.00;166059.97;5008846;28;20504;-65
2023/06/10 06:52:03;;;;;;;7.80;4.20;;;;;;;21.12;100.00;166095.28;5010082;28;20029;-64
2023/06/10 06:54:29;;;;;;;5.10;4.22;;;;;;;21.32;100.00;166146.91;5008774;28;20432;-64
2023/06/10 06:56:54;;;;;;;3.95;3.55;;;;;;;21.46;100.00;166184.94;5009729;28;20018;-65
2023/06/10 06:59:19;;;;;;;8.25;4.47;;;;;;;21.44;100.00;166179.50;5018268;28;20393;-65
2023/06/10 07:01:45;;;;;;;9.48;4.75;;;;;;;21.59;100.00;166217.56;5029044;28;20087;-65
2023/06/10 07:04:11;;;;;;;4.30;3.40;;;;;;;21.65;100.00;166235.25;5028560;28;20128;-65
2023/06/10 07:06:37;;;;;;;8.07;4.00;;;;;;;21.78;100.00;166269.16;5029434;28;20112;-65
2023/06/10 07:09:03;;;;;;;7.03;3.65;;;;;;;21.96;100.00;166316.75;5027398;28;20042;-65
2023/06/10 07:11:29;;;;;;;8.18;4.25;;;;;;;22.15;100.00;166366.97;5029500;28;20109;-65
2023/06/10 07:13:54;;;;;;;11.57;4.38;;;;;;;22.30;100.00;166405.06;5028343;28;20038;-65
2023/06/10 07:16:21;;;;;;;6.18;4.43;;;;;;;22.45;100.00;166445.84;5029290;28;20025;-65
2023/06/10 07:18:46;;;;;;;3.30;3.00;;;;;;;22.58;100.00;166479.81;5026524;28;20449;-68
2023/06/10 07:21:11;;;;;;;6.47;4.95;;;;;;;22.53;100.00;166464.88;5024093;28;20018;-68
2023/06/10 07:23:37;;;;;;;6.93;3.70;;;;;;;22.66;100.00;166500.25;5011317;28;20038;-68
2023/06/10 07:26:02;;;;;;;12.75;4.32;;;;;;;22.76;100.00;166527.38;5015163;28;20045;-69
2023/06/10 07:28:28;;;;;;;5.75;4.63;;;;;;;23.07;100.00;166608.94;5031709;28;20051;-69
2023/06/10 07:30:53;;;;;;;5.55;3.30;;;;;;;23.36;100.00;166683.78;5032578;28;20029;-69
2023/06/10 07:33:18;;;;;;;9.10;3.30;;;;;;;23.58;100.00;166742.22;5031317;28;20017;-69
2023/06/10 07:35:44;;;;;;;7.88;3.58;;;;;;;23.62;100.00;166753.13;5022074;28;20469;-68
2023/06/10 07:38:09;;;;;;;6.70;3.78;;;;;;;23.73;100.00;166783.00;5012426;28;20041;-68
2023/06/10 07:40:35;;;;;;;11.18;4.30;;;;;;;23.74;100.00;166784.38;5026623;28;20018;-69
2023/06/10 07:43:00;;;;;;;7.40;3.67;;;;;;;23.70;100.00;166774.88;5032093;28;20040;-69
2023/06/10 07:45:25;;;;;;;10.95;5.65;;;;;;;23.77;100.00;166792.53;5031038;28;20563;-69
2023/06/10 07:47:51;;;;;;;6.47;3.17;;;;;;;23.88;100.00;166821.06;5032155;28;20109;-68
2023/06/10 07:50:16;;;;;;;9.75;3.95;;;;;;;24.02;100.00;166857.84;5030836;28;20048;-69
2023/06/10 07:52:41;;;;;;;5.28;3.35;;;;;;;24.16;100.00;166894.59;5032283;28;20017;-69
2023/06/10 07:55:07;;;;;;;7.35;3.47;;;;;;;24.17;100.00;166898.66;5031258;28;20520;-68
2023/06/10 07:57:36;;;;;;;7.25;3.50;;;;;;;24.15;100.00;166891.88;5032727;28;20077;-68
2023/06/10 08:00:04;;;;;;;5.93;3.78;;;;;;;24.17;100.00;166897.28;5030591;28;20029;-68
2023/06/10 08:02:29;;;;;;;15.05;4.72;;;;;;;-146.58;100.00;69501.63;5031800;28;20389;-67
2023/06/10 08:04:55;;;;;;;28.45;5.22;;;;;;;-146.58;100.00;69501.63;5030457;28;20095;-67
2023/06/10 08:07:20;;;;;;;10.93;3.97;;;;;;;-146.58;100.00;69501.63;5032417;28;20079;-67
2023/06/10 08:09:45;;;;;;;5.00;3.53;;;;;;;-146.58;100.00;69501.63;5030970;28;20034;-67
2023/06/10 08:12:11;;;;;;;7.45;3.70;;;;;;;-146.58;100.00;69501.63;5032703;28;20027;-67
2023/06/10 08:14:36;;;;;;;8.73;3.97;;;;;;;-146.58;100.00;69501.63;5030457;28;20041;-67
2023/06/10 08:17:04;;;;;;;7.80;3.60;;;;;;;-146.58;100.00;69501.63;5031979;28;20033;-67
2023/06/10 08:19:30;;;;;;;;;;;;;;;-146.58;100.00;69501.63;5031352;28;20037;-67
2023/06/10 08:21:56;;;;;;;8.10;4.15;;;;;;;-146.58;100.00;69501.63;5031623;28;19913;-67
2023/06/10 08:24:21;;;;;;;4.97;3.95;;;;;;;-146.58;100.00;69501.63;5030918;28;20069;-67
2023/06/10 08:26:46;;;;;;;5.57;3.67;;;;;;;-146.58;100.00;69501.63;5031510;28;20103;-67
2023/06/10 08:29:12;;;;;;;6.63;3.30;;;;;;;-146.58;100.00;69501.63;5029791;28;20041;-67
2023/06/10 08:31:41;;;;;;;11.07;3.58;;;;;;;-146.58;100.00;69501.63;5031695;28;20028;-67
2023/06/10 08:34:06;;;;;;;4.72;3.78;;;;;;;-146.58;100.00;69501.63;5014192;28;20060;-67
2023/06/10 08:36:32;;;;;;;4.18;3.78;;;;;;;-146.58;100.00;69501.63;5010922;28;20022;-67
2023/06/10 08:38:57;;;;;;;4.47;3.85;;;;;;;-146.58;100.00;69501.63;5012907;28;20118;-71
2023/06/10 08:41:28;;;;;;;4.95;3.63;;;;;;;-146.58;100.00;69501.63;5030994;28;20021;-67
2023/06/10 08:44:27;;;;;;;4.47;3.40;;;;;;;-146.58;100.00;69501.63;5029694;28;20038;-67
2023/06/10 08:46:55;;;;;;;10.65;5.07;;;;;;;-146.58;100.00;69501.63;5024076;28;20045;-67
2023/06/10 08:49:23;;;;;;;4.05;2.83;;;;;;;-146.58;100.00;69501.63;5030272;28;20181;-67
2023/06/10 08:51:57;;;;;;;7.45;3.47;;;;;;;-146.58;100.00;69501.63;5031350;28;20025;-68
2023/06/10 08:54:26;;;;;;;7.60;5.22;;;;;;;-146.58;100.00;69501.63;5029424;28;20052;-67
2023/06/10 08:56:55;;;;;;;7.82;4.07;;;;;;;-146.58;100.00;69501.63;5031294;28;20025;-67
2023/06/10 08:59:21;;;;;;;5.57;4.13;;;;;;;-146.58;100.00;69501.63;5029696;28;20044;-67
2023/06/10 09:01:46;;;;;;;14.05;4.22;;;;;;;-146.58;100.00;69501.63;5031031;28;20455;-66
2023/06/10 09:04:12;;;;;;;9.32;3.85;;;;;;;-146.58;100.00;69501.63;5030073;28;20046;-66
2023/06/10 09:06:38;;;;;;;8.40;3.20;;;;;;;-146.58;100.00;69501.63;5030736;28;20032;-66
2023/06/10 09:09:06;;;;;;;6.90;4.75;;;;;;;-146.58;100.00;69501.63;5026327;28;20045;-66
2023/06/10 09:11:32;;;;;;;14.52;4.20;;;;;;;-146.58;100.00;69501.63;5031343;28;20105;-66
2023/06/10 09:13:58;;;;;;;6.38;3.40;;;;;;;-146.58;100.00;69501.63;5028853;28;20591;-66
2023/06/10 09:16:24;;;;;;;17.83;4.00;;;;;;;-146.58;100.00;69501.63;5031261;28;20025;-66
2023/06/10 09:18:54;;;;;;;7.15;3.88;;;;;;;-146.58;100.00;69501.63;5029469;28;20106;-66
2023/06/10 09:21:23;;;;;;;7.15;3.70;;;;;;;-146.58;100.00;69501.63;5031064;28;20040;-66
2023/06/10 09:23:49;;;;;;;9.15;3.97;;;;;;;-146.58;100.00;69501.63;5028639;28;20049;-67
2023/06/10 09:26:15;;;;;;;4.00;3.35;;;;;;;-146.58;100.00;69501.63;5031063;28;20061;-67
2023/06/10 09:28:44;;;;;;;6.03;3.88;;;;;;;27.88;100.00;167874.88;5028700;28;20172;-67
2023/06/10 09:31:09;;;;;;;6.13;3.42;;;;;;;27.40;100.00;167749.50;5030707;28;20033;-66
2023/06/10 09:33:41;;;;;;;5.50;3.92;;;;;;;27.45;100.00;167763.16;5029475;28;20519;-66
2023/06/10 09:36:07;;;;;;;7.93;3.33;;;;;;;27.58;100.00;167795.88;5030437;28;20104;-66
2023/06/10 09:38:34;;;;;;;5.78;4.05;;;;;;;27.67;100.00;167820.34;5029572;28;20037;-66
2023/06/10 09:41:01;;;;;;;12.32;5.03;;;;;;;27.39;100.00;167748.16;5029688;28;20026;-67
2023/06/10 09:43:58;;;;;;;6.25;3.40;;;;;;;27.31;100.00;167724.97;5029038;28;20104;-66
2023/06/10 09:46:23;;;;;;;5.53;3.65;;;;;;;27.31;100.00;167724.97;5007662;28;20037;-67
2023/06/10 09:48:49;;;;;;;15.23;4.95;;;;;;;27.59;100.00;167798.59;5028076;28;20091;-67
2023/06/10 09:51:16;;;;;;;3.72;3.17;;;;;;;27.69;100.00;167825.81;5030506;28;20036;-67
2023/06/10 09:53:42;;;;;;;8.35;5.13;;;;;;;27.86;100.00;167870.75;5028458;28;20412;-67
2023/06/10 09:56:07;;;;;;;8.57;3.45;;;;;;;28.10;100.00;167934.88;5030976;28;20026;-67
2023/06/10 09:58:37;;;;;;;3.58;3.25;;;;;;;27.92;100.00;167885.75;5028768;28;20048;-66
2023/06/10 10:01:05;;;;;;;3.53;3.17;;;;;;;27.70;100.00;167828.53;5030911;28;20022;-67
2023/06/10 10:03:30;;;;;;;;;;;;;;;27.53;100.00;167784.94;5029604;28;20049;-66
2023/06/10 10:06:03;;;;;;;6.33;4.03;;;;;;;27.56;100.00;167791.75;5029770;28;20902;-66
2023/06/10 10:08:28;;;;;;;6.47;3.97;;;;;;;27.64;100.00;167812.22;5029131;28;20030;-66
2023/06/10 10:10:55;;;;;;;4.00;3.08;;;;;;;27.83;100.00;167863.94;5030174;28;20044;-67
2023/06/10 10:13:20;;;;;;;10.85;3.53;;;;;;;28.17;100.00;167953.94;5028412;28;20029;-67
2023/06/10 10:15:46;;;;;;;8.40;4.55;;;;;;;28.17;100.00;167952.56;5028920;28;20104;-67
2023/06/10 10:18:17;;;;;;;7.50;4.10;;;;;;;28.37;100.00;168005.72;5026725;28;20075;-67
2023/06/10 10:20:52;;;;;;;8.38;5.18;;;;;;;28.37;100.00;168005.72;5029511;28;20022;-67
2023/06/10 10:23:24;;;;;;;5.25;3.85;;;;;;;28.63;100.00;168075.19;5029245;28;20033;-66
2023/06/10 10:25:53;;;;;;;5.68;4.10;;;;;;;28.37;100.00;168005.72;5030427;28;20025;-67
2023/06/10 10:28:21;;;;;;;7.10;3.97;;;;;;;28.74;100.00;168102.53;5027770;28;20045;-67
2023/06/10 10:30:50;;;;;;;6.30;4.18;;;;;;;28.72;100.00;168098.41;5028126;28;20057;-66
2023/06/10 10:33:19;;;;;;;6.22;3.75;;;;;;;28.69;100.00;168090.25;5027804;28;20163;-66
2023/06/10 10:35:46;;;;;;;7.93;3.67;;;;;;;28.90;100.00;168144.75;5028954;28;20078;-67
2023/06/10 10:38:11;;;;;;;6.55;3.85;;;;;;;29.20;100.00;168223.81;5028275;28;20022;-67
2023/06/10 10:40:37;;;;;;;4.88;3.10;;;;;;;29.32;100.00;168256.56;5029621;28;20048;-67
2023/06/10 10:43:04;;;;;;;8.25;4.30;;;;;;;28.97;100.00;168163.84;5030030;28;20032;-66
2023/06/10 10:45:29;;;;;;;12.50;4.40;;;;;;;28.59;100.00;168062.94;5029210;28;20037;-67
2023/06/10 10:47:56;;;;;;;7.38;3.42;;;;;;;28.69;100.00;168088.81;5030157;28;20030;-67
2023/06/10 10:50:22;;;;;;;6.88;2.95;;;;;;;29.07;100.00;168191.13;5028530;28;20067;-67
2023/06/10 10:52:55;;;;;;;10.75;3.85;;;;;;;29.29;100.00;168248.38;5030637;28;20037;-67
2023/06/10 10:55:22;;;;;;;9.43;4.00;;;;;;;29.37;100.00;168270.22;5032854;28;20041;-67
2023/06/10 10:58:07;;;;;;;8.85;3.90;;;;;;;29.71;100.00;168360.19;5033736;28;20071;-67
2023/06/10 11:00:34;;;;;;;6.43;3.60;;;;;;;29.82;100.00;168387.47;5032696;28;20048;-67
2023/06/10 11:03:04;;;;;;;10.15;3.17;;;;;;;29.70;100.00;168357.44;5033431;28;20523;-67
2023/06/10 11:05:40;;;;;;;6.18;3.78;;;;;;;29.59;100.00;168328.81;5032290;28;20049;-67
2023/06/10 11:08:08;;;;;;;7.65;4.43;;;;;;;29.41;100.00;168279.78;5033900;28;20033;-67
2023/06/10 11:10:35;;;;;;;3.53;2.95;;;;;;;29.63;100.00;168338.38;5032389;28;20048;-67